createdAt,value
2023-03-06T00:01:01.605Z,-0.60
2023-03-06T00:03:28.761Z,-0.60
2023-03-06T00:06:00.010Z,-0.60
2023-03-06T00:08:29.126Z,-0.60
2023-03-06T00:10:56.828Z,-0.60
2023-03-06T00:13:24.807Z,-0.60
2023-03-06T00:15:51.863Z,-0.60
2023-03-06T00:18:18.956Z,-0.60
2023-03-06T00:20:46.141Z,-0.60
2023-03-06T00:23:13.524Z,-0.60
2023-03-06T00:25:45.356Z,-0.60
2023-03-06T00:28:14.921Z,-0.50
2023-03-06T00:30:42.526Z,-0.50
2023-03-06T00:33:09.675Z,-0.50
2023-03-06T00:35:39.334Z,-0.50
2023-03-06T00:38:06.421Z,-0.60
2023-03-06T00:40:33.424Z,-0.50
2023-03-06T00:43:00.477Z,-0.50
2023-03-06T00:45:27.537Z,-0.50
2023-03-06T00:47:54.590Z,-0.50
2023-03-06T00:50:21.596Z,-0.50
2023-03-06T00:52:48.576Z,-0.50
2023-03-06T01:06:38.661Z,-0.50
2023-03-06T01:09:06.261Z,-0.50
2023-03-06T01:11:33.288Z,-0.50
2023-03-06T01:14:00.311Z,-0.50
2023-03-06T01:16:27.534Z,-0.50
2023-03-06T01:18:54.759Z,-0.40
2023-03-06T01:21:21.980Z,-0.50
2023-03-06T01:23:49.046Z,-0.50
2023-03-06T01:26:16.340Z,-0.50
2023-03-06T01:28:43.494Z,-0.40
2023-03-06T01:31:11.103Z,-0.40
2023-03-06T01:33:38.417Z,-0.50
2023-03-06T01:36:11.574Z,-0.50
2023-03-06T01:38:39.010Z,-0.50
2023-03-06T01:41:06.719Z,-0.50
2023-03-06T01:43:36.160Z,-0.60
2023-03-06T01:46:38.875Z,-0.50
2023-03-06T01:49:33.834Z,-0.60
2023-03-06T01:52:09.081Z,-0.60
2023-03-06T01:54:52.146Z,-0.50
2023-03-06T01:57:32.571Z,-0.50
2023-03-06T02:00:06.099Z,-0.50
2023-03-06T02:02:33.132Z,-0.50
2023-03-06T02:05:02.185Z,-0.50
2023-03-06T02:07:30.522Z,-0.50
2023-03-06T02:09:58.642Z,-0.50
2023-03-06T02:12:26.410Z,-0.50
2023-03-06T02:14:53.614Z,-0.50
2023-03-06T02:17:22.185Z,-0.40
2023-03-06T02:19:58.292Z,-0.40
2023-03-06T02:22:31.877Z,-0.40
2023-03-06T02:25:14.203Z,-0.40
2023-03-06T02:27:41.346Z,-0.40
2023-03-06T02:30:09.626Z,-0.40
2023-03-06T02:32:36.708Z,-0.40
2023-03-06T02:35:04.131Z,-0.40
2023-03-06T02:37:31.177Z,-0.30
2023-03-06T02:40:10.327Z,-0.40
2023-03-06T02:42:37.354Z,-0.30
2023-03-06T02:45:07.718Z,-0.30
2023-03-06T02:47:34.700Z,-0.30
2023-03-06T02:50:01.727Z,-0.30
2023-03-06T02:52:28.739Z,-0.30
2023-03-06T02:54:55.665Z,-0.30
2023-03-06T02:57:22.657Z,-0.30
2023-03-06T02:59:49.675Z,-0.30
2023-03-06T03:02:16.780Z,-0.30
2023-03-06T03:04:43.824Z,-0.30
2023-03-06T03:07:10.863Z,-0.30
2023-03-06T03:09:37.884Z,-0.30
2023-03-06T03:12:06.710Z,-0.30
2023-03-06T03:14:33.751Z,-0.30
2023-03-06T03:17:00.953Z,-0.20
2023-03-06T03:19:28.269Z,-0.20
2023-03-06T03:21:55.244Z,-0.20
2023-03-06T03:24:22.289Z,-0.30
2023-03-06T03:26:49.278Z,-0.30
2023-03-06T03:29:16.288Z,-0.40
2023-03-06T03:31:43.317Z,-0.40
2023-03-06T03:34:10.337Z,-0.40
2023-03-06T03:36:37.400Z,-0.40
2023-03-06T03:39:04.683Z,-0.40
2023-03-06T03:41:32.406Z,-0.40
2023-03-06T03:43:59.574Z,-0.40
2023-03-06T03:46:26.860Z,-0.30
2023-03-06T03:48:53.931Z,-0.30
2023-03-06T03:51:21.020Z,-0.30
2023-03-06T03:53:48.170Z,-0.30
2023-03-06T03:56:15.552Z,-0.20
2023-03-06T03:58:42.563Z,-0.30
2023-03-06T04:01:09.740Z,-0.30
2023-03-06T04:03:36.747Z,-0.40
2023-03-06T04:06:03.885Z,-0.40
2023-03-06T04:08:30.971Z,-0.40
2023-03-06T04:10:58.189Z,-0.50
2023-03-06T04:13:25.291Z,-0.50
2023-03-06T04:15:54.332Z,-0.50
2023-03-06T04:18:22.464Z,-0.60
2023-03-06T04:20:50.155Z,-0.60
2023-03-06T04:23:19.074Z,-0.60
2023-03-06T04:25:46.809Z,-0.60
2023-03-06T04:28:13.982Z,-0.60
2023-03-06T04:30:41.127Z,-0.60
2023-03-06T04:33:08.392Z,-0.60
2023-03-06T04:35:35.845Z,-0.60
2023-03-06T04:38:04.824Z,-0.60
2023-03-06T04:40:34.850Z,-0.60
2023-03-06T04:43:03.448Z,-0.60
2023-03-06T04:45:32.083Z,-0.60
2023-03-06T04:47:59.583Z,-0.60
2023-03-06T04:50:28.474Z,-0.60
2023-03-06T04:52:55.436Z,-0.60
2023-03-06T04:55:22.455Z,-0.60
2023-03-06T04:57:49.692Z,-0.60
2023-03-06T05:00:20.182Z,-0.60
2023-03-06T05:02:48.036Z,-0.60
2023-03-06T05:05:15.930Z,-0.60
2023-03-06T05:07:43.320Z,-0.60
2023-03-06T05:10:17.070Z,-0.60
2023-03-06T05:12:44.608Z,-0.60
2023-03-06T05:15:13.106Z,-0.50
2023-03-06T05:17:40.564Z,-0.50
2023-03-06T05:20:09.949Z,-0.50
2023-03-06T05:22:37.153Z,-0.50
2023-03-06T05:25:05.219Z,-0.50
2023-03-06T05:27:32.351Z,-0.50
2023-03-06T05:29:59.640Z,-0.50
2023-03-06T05:32:27.125Z,-0.50
2023-03-06T05:35:23.719Z,-0.50
2023-03-06T05:37:51.265Z,-0.40
2023-03-06T05:40:19.067Z,-0.50
2023-03-06T05:42:46.315Z,-0.50
2023-03-06T05:45:13.611Z,-0.50
2023-03-06T06:18:58.633Z,-0.50
2023-03-06T06:21:25.678Z,-0.50
2023-03-06T06:23:52.731Z,-0.40
2023-03-06T06:26:20.144Z,-0.50
2023-03-06T06:28:47.256Z,-0.40
2023-03-06T06:42:27.794Z,-0.30
2023-03-06T06:44:49.627Z,-0.20
2023-03-06T06:47:25.554Z,-0.20
2023-03-06T06:49:57.826Z,-0.10
2023-03-06T06:52:25.254Z,-0.10
2023-03-06T06:54:53.045Z,-0.10
2023-03-06T06:57:20.669Z,0.00
2023-03-06T06:59:47.858Z,0.00
2023-03-06T07:02:16.684Z,0.00
2023-03-06T07:05:01.867Z,0.10
2023-03-06T07:07:32.420Z,0.10
2023-03-06T07:09:59.552Z,0.20
2023-03-06T07:12:26.817Z,0.30
2023-03-06T07:14:53.811Z,0.30
2023-03-06T07:17:20.922Z,0.40
2023-03-06T07:19:48.378Z,0.50
2023-03-06T07:22:15.562Z,0.50
2023-03-06T07:24:42.650Z,0.50
2023-03-06T07:27:09.827Z,0.60
2023-03-06T07:29:36.947Z,0.60
2023-03-06T07:32:04.234Z,0.60
2023-03-06T07:34:31.382Z,0.60
2023-03-06T07:36:58.897Z,0.60
2023-03-06T07:39:31.383Z,0.60
2023-03-06T07:41:58.880Z,0.70
2023-03-06T07:44:40.644Z,0.70
2023-03-06T07:47:09.685Z,0.70
2023-03-06T07:53:26.100Z,0.70
2023-03-06T08:29:40.447Z,1.50
2023-03-06T08:38:14.826Z,2.20
2023-03-06T08:40:52.125Z,2.30
2023-03-06T08:46:03.435Z,2.60
2023-03-06T08:48:33.658Z,2.80
2023-03-06T08:51:03.165Z,2.90
2023-03-06T08:53:42.103Z,2.80
2023-03-06T08:56:28.576Z,3.00
2023-03-06T08:58:59.330Z,3.10
2023-03-06T09:01:30.854Z,3.20
2023-03-06T09:04:01.373Z,3.20
2023-03-06T09:06:32.095Z,3.20
2023-03-06T09:08:59.660Z,3.20
2023-03-06T09:11:27.573Z,3.20
2023-03-06T09:13:56.173Z,3.10
2023-03-06T09:16:25.192Z,3.10
2023-03-06T09:18:54.140Z,3.10
2023-03-06T09:21:25.208Z,3.20
2023-03-06T09:23:52.521Z,3.20
2023-03-06T09:26:19.714Z,3.20
2023-03-06T09:28:47.441Z,3.30
2023-03-06T09:31:19.726Z,3.40
2023-03-06T09:33:50.557Z,3.60
2023-03-06T09:36:45.623Z,3.90
2023-03-06T09:39:19.586Z,4.10
2023-03-06T09:41:52.414Z,4.30
2023-03-06T09:44:26.237Z,4.40
2023-03-06T09:47:18.692Z,4.40
2023-03-06T09:50:02.276Z,4.50
2023-03-06T09:52:56.762Z,4.80
2023-03-06T09:55:34.968Z,4.80
2023-03-06T09:58:09.922Z,4.70
2023-03-06T10:01:26.189Z,4.40
2023-03-06T10:04:32.576Z,4.30
2023-03-06T10:07:38.734Z,4.20
2023-03-06T10:11:47.234Z,4.00
2023-03-06T10:18:08.067Z,4.30
2023-03-06T10:24:58.720Z,4.20
2023-03-06T10:28:00.426Z,4.20
2023-03-06T10:30:57.678Z,4.30
2023-03-06T10:34:04.936Z,4.40
2023-03-06T10:37:05.639Z,4.70
2023-03-06T10:39:35.293Z,5.10
2023-03-06T10:42:25.748Z,5.50
2023-03-06T10:45:10.124Z,5.60
2023-03-06T10:51:02.774Z,5.80
2023-03-06T10:58:20.973Z,5.60
2023-03-06T11:03:28.574Z,5.80
2023-03-06T11:06:05.298Z,5.90
2023-03-06T11:08:34.669Z,5.90
2023-03-06T11:11:01.758Z,5.90
2023-03-06T11:13:37.356Z,5.90
2023-03-06T11:35:32.245Z,4.50
2023-03-06T11:38:35.537Z,4.30
2023-03-06T11:41:26.708Z,4.30
2023-03-06T11:44:49.602Z,4.40
2023-03-06T11:58:54.228Z,3.90
2023-03-06T12:01:53.374Z,3.60
2023-03-06T12:04:57.274Z,3.50
2023-03-06T12:08:00.214Z,3.20
2023-03-06T12:14:15.799Z,3.00
2023-03-06T12:17:07.099Z,2.80
2023-03-06T12:23:16.126Z,2.60
2023-03-06T12:29:38.560Z,2.50
2023-03-06T12:32:19.455Z,2.50
2023-03-06T12:35:04.084Z,2.60
2023-03-06T12:38:12.289Z,2.90
2023-03-06T12:41:03.493Z,3.30
2023-03-06T12:43:48.904Z,3.70
2023-03-06T12:46:19.672Z,3.90
2023-03-06T12:49:31.991Z,4.00
2023-03-06T12:52:06.583Z,4.00
2023-03-06T12:54:37.984Z,3.90
2023-03-06T12:57:08.338Z,3.80
2023-03-06T12:59:51.649Z,3.60
2023-03-06T13:03:08.200Z,3.40
2023-03-06T13:05:59.742Z,3.30
2023-03-06T13:09:08.810Z,3.10
2023-03-06T13:11:41.747Z,3.00
2023-03-06T13:14:42.187Z,2.70
2023-03-06T13:17:35.152Z,2.40
2023-03-06T13:20:26.035Z,2.20
2023-03-06T13:35:21.763Z,2.40
2023-03-06T13:37:50.403Z,2.80
2023-03-06T13:40:49.063Z,3.00
2023-03-06T13:43:21.625Z,3.30
2023-03-06T13:46:00.931Z,3.80
2023-03-06T13:48:47.812Z,3.90
2023-03-06T13:52:02.970Z,4.10
2023-03-06T13:54:30.250Z,4.40
2023-03-06T13:57:23.450Z,4.40
2023-03-06T14:00:08.545Z,4.50
2023-03-06T14:06:42.302Z,4.30
2023-03-06T14:09:41.684Z,4.40
2023-03-06T14:12:23.865Z,4.40
2023-03-06T14:15:06.100Z,4.40
2023-03-06T14:17:35.683Z,4.30
2023-03-06T14:20:20.692Z,4.10
2023-03-06T14:22:48.105Z,3.90
2023-03-06T14:25:30.291Z,3.80
2023-03-06T14:28:28.290Z,3.80
2023-03-06T14:31:11.066Z,3.80
2023-03-06T14:33:51.178Z,4.00
2023-03-06T14:36:21.160Z,3.90
2023-03-06T14:38:58.371Z,3.90
2023-03-06T14:41:29.822Z,3.70
2023-03-06T14:44:22.428Z,3.60
2023-03-06T14:47:00.284Z,3.50
2023-03-06T14:49:27.436Z,3.40
2023-03-06T14:52:02.413Z,3.40
2023-03-06T14:54:36.427Z,3.30
2023-03-06T14:57:14.475Z,3.30
2023-03-06T15:25:44.113Z,2.90
2023-03-06T15:28:28.574Z,3.00
2023-03-06T15:31:21.343Z,2.90
2023-03-06T15:45:21.965Z,2.50
2023-03-06T15:47:51.448Z,2.50
2023-03-06T15:50:28.343Z,2.50
2023-03-06T15:53:04.003Z,2.50
2023-03-06T15:55:32.644Z,2.40
2023-03-06T15:58:38.221Z,2.30
2023-03-06T16:01:05.695Z,2.30
2023-03-06T16:12:02.316Z,2.10
2023-03-06T16:23:58.202Z,1.80
2023-03-06T16:34:24.556Z,1.60
2023-03-06T16:36:51.813Z,1.60
2023-03-06T16:39:21.620Z,1.60
2023-03-06T16:41:49.556Z,1.50
2023-03-06T16:44:16.741Z,1.50
2023-03-06T16:46:46.382Z,1.50
2023-03-06T16:49:24.367Z,1.40
2023-03-06T16:51:53.027Z,1.40
2023-03-06T16:54:21.934Z,1.40
2023-03-06T16:56:49.251Z,1.30
2023-03-06T16:59:16.278Z,1.30
2023-03-06T17:01:43.486Z,1.20
2023-03-06T17:04:11.452Z,1.20
2023-03-06T17:06:39.196Z,1.20
2023-03-06T17:09:06.459Z,1.20
2023-03-06T17:11:35.437Z,1.10
2023-03-06T17:14:02.656Z,1.10
2023-03-06T17:16:29.710Z,1.10
2023-03-06T17:18:58.306Z,1.00
2023-03-06T17:21:27.093Z,1.00
2023-03-06T17:23:56.418Z,1.00
2023-03-06T17:26:23.486Z,0.90
2023-03-06T17:28:50.521Z,0.90
2023-03-06T17:31:20.685Z,0.90
2023-03-06T17:33:48.541Z,0.90
2023-03-06T17:36:16.585Z,0.90
2023-03-06T17:38:43.993Z,0.90
2023-03-06T17:41:12.416Z,0.90
2023-03-06T17:43:39.687Z,0.90
2023-03-06T17:46:09.491Z,0.90
2023-03-06T17:48:36.707Z,0.80
2023-03-06T17:51:04.363Z,0.80
2023-03-06T17:53:31.614Z,0.90
2023-03-06T17:55:59.128Z,0.90
2023-03-06T17:58:27.967Z,0.90
2023-03-06T18:00:55.071Z,0.90
2023-03-06T18:03:22.659Z,0.90
2023-03-06T18:06:00.262Z,0.90
2023-03-06T18:08:27.340Z,0.90
2023-03-06T18:11:00.236Z,1.00
2023-03-06T18:13:27.359Z,1.00
2023-03-06T18:15:54.476Z,1.00
2023-03-06T18:18:21.792Z,0.90
2023-03-06T18:20:49.103Z,0.90
2023-03-06T18:23:16.498Z,0.90
2023-03-06T18:25:43.910Z,0.90
2023-03-06T18:28:11.429Z,0.90
2023-03-06T18:30:41.438Z,0.90
2023-03-06T18:33:09.487Z,0.90
2023-03-06T18:35:37.312Z,0.90
2023-03-06T18:38:04.462Z,0.80
2023-03-06T18:40:31.508Z,0.80
2023-03-06T18:42:58.636Z,0.80
2023-03-06T18:45:25.798Z,0.80
2023-03-06T18:47:52.790Z,0.80
2023-03-06T18:50:19.858Z,0.80
2023-03-06T18:52:47.096Z,0.80
2023-03-06T18:55:14.144Z,0.70
2023-03-06T18:57:41.490Z,0.70
2023-03-06T19:00:09.824Z,0.70
2023-03-06T19:02:36.770Z,0.60
2023-03-06T19:05:03.932Z,0.60
2023-03-06T19:07:30.994Z,0.60
2023-03-06T19:09:58.020Z,0.60
2023-03-06T19:12:24.996Z,0.60
2023-03-06T19:14:51.937Z,0.60
2023-03-06T19:17:18.954Z,0.60
2023-03-06T19:19:49.094Z,0.50
2023-03-06T19:22:16.017Z,0.50
2023-03-06T19:24:42.947Z,0.50
2023-03-06T19:27:11.566Z,0.50
2023-03-06T19:29:38.660Z,0.50
2023-03-06T19:32:05.990Z,0.40
2023-03-06T19:34:33.035Z,0.50
2023-03-06T19:37:00.080Z,0.40
2023-03-06T19:39:27.157Z,0.40
2023-03-06T19:41:54.209Z,0.40
2023-03-06T19:44:21.200Z,0.40
2023-03-06T19:46:48.191Z,0.40
2023-03-06T19:49:18.097Z,0.30
2023-03-06T19:51:45.240Z,0.30
2023-03-06T19:54:12.927Z,0.30
2023-03-06T19:56:40.225Z,0.30
2023-03-06T19:59:07.313Z,0.30
2023-03-06T20:01:34.537Z,0.30
2023-03-06T20:04:02.056Z,0.30
2023-03-06T20:06:33.808Z,0.30
2023-03-06T20:09:02.634Z,0.30
2023-03-06T20:11:30.606Z,0.30
2023-03-06T20:13:59.375Z,0.30
2023-03-06T20:16:30.377Z,0.30
2023-03-06T20:18:59.055Z,0.30
2023-03-06T20:21:30.849Z,0.30
2023-03-06T20:23:58.350Z,0.30
2023-03-06T20:26:26.928Z,0.30
2023-03-06T20:28:54.908Z,0.30
2023-03-06T20:31:24.745Z,0.30
2023-03-06T20:33:53.739Z,0.30
2023-03-06T20:36:28.957Z,0.20
2023-03-06T20:38:58.750Z,0.20
2023-03-06T20:41:28.141Z,0.20
2023-03-06T20:43:55.592Z,0.20
2023-03-06T20:46:23.314Z,0.30
2023-03-06T20:48:52.016Z,0.30
2023-03-06T20:51:22.021Z,0.30
2023-03-06T20:53:53.433Z,0.30
2023-03-06T20:56:37.770Z,0.30
2023-03-06T20:59:06.319Z,0.30
2023-03-06T21:01:36.739Z,0.30
2023-03-06T21:18:15.494Z,0.40
2023-03-06T21:20:42.943Z,0.40
2023-03-06T21:23:12.498Z,0.40
2023-03-06T21:26:27.554Z,0.40
2023-03-06T21:33:00.240Z,0.50
2023-03-06T21:35:42.530Z,0.50
2023-03-06T21:38:18.659Z,0.50
2023-03-06T21:43:37.282Z,0.50
2023-03-06T21:46:06.111Z,0.50
2023-03-06T21:48:49.065Z,0.50
2023-03-06T21:51:41.302Z,0.50
2023-03-06T21:57:34.262Z,0.50
2023-03-06T22:00:16.420Z,0.50
2023-03-06T22:10:17.215Z,0.50
2023-03-06T22:17:15.950Z,0.50
2023-03-06T23:20:16.240Z,0.40
2023-03-06T23:22:45.630Z,0.40
2023-03-06T23:32:35.955Z,0.30
2023-03-06T23:35:03.153Z,0.30
2023-03-06T23:37:30.337Z,0.30
2023-03-06T23:39:57.502Z,0.30
2023-03-06T23:42:25.027Z,0.30
